createdAt,value
2023-03-26T00:01:16.572Z,99.95
2023-03-26T00:03:43.629Z,100.00
2023-03-26T00:06:15.483Z,99.93
2023-03-26T00:08:43.676Z,99.42
2023-03-26T00:11:13.863Z,100.00
2023-03-26T00:13:41.442Z,100.00
2023-03-26T00:16:20.150Z,100.00
2023-03-26T00:18:46.579Z,100.00
2023-03-26T00:21:16.196Z,100.00
2023-03-26T00:23:45.165Z,100.00
2023-03-26T00:26:15.349Z,100.00
2023-03-26T00:28:42.648Z,100.00
2023-03-26T00:31:12.662Z,100.00
2023-03-26T00:33:40.674Z,100.00
2023-03-26T00:36:12.379Z,100.00
2023-03-26T00:38:48.894Z,100.00
2023-03-26T00:41:17.903Z,100.00
2023-03-26T00:43:46.085Z,100.00
2023-03-26T00:46:15.520Z,100.00
2023-03-26T00:48:47.460Z,100.00
2023-03-26T00:51:15.772Z,100.00
2023-03-26T00:53:46.499Z,100.00
2023-03-26T00:56:13.278Z,100.00
2023-03-26T00:58:44.942Z,100.00
2023-03-26T01:01:17.190Z,100.00
2023-03-26T01:03:53.642Z,100.00
2023-03-26T01:06:29.867Z,100.00
2023-03-26T01:08:56.616Z,100.00
2023-03-26T01:11:27.444Z,100.00
2023-03-26T01:14:07.258Z,100.00
2023-03-26T01:16:42.685Z,100.00
2023-03-26T01:19:20.079Z,100.00
2023-03-26T01:21:47.405Z,100.00
2023-03-26T01:24:16.495Z,100.00
2023-03-26T01:26:42.790Z,100.00
2023-03-26T01:29:19.942Z,100.00
2023-03-26T01:32:20.632Z,100.00
2023-03-26T01:35:03.509Z,100.00
2023-03-26T01:37:40.430Z,100.00
2023-03-26T01:40:26.730Z,100.00
2023-03-26T01:43:37.729Z,100.00
2023-03-26T01:46:07.344Z,100.00
2023-03-26T01:48:40.222Z,100.00
2023-03-26T01:51:12.071Z,100.00
2023-03-26T01:53:46.352Z,100.00
2023-03-26T01:56:26.959Z,100.00
2023-03-26T01:59:33.047Z,100.00
2023-03-26T02:02:02.957Z,100.00
2023-03-26T02:04:45.848Z,100.00
2023-03-26T02:07:49.896Z,100.00
2023-03-26T02:10:38.686Z,100.00
2023-03-26T02:13:06.383Z,100.00
2023-03-26T02:15:35.559Z,100.00
2023-03-26T02:18:01.958Z,100.00
2023-03-26T02:20:28.297Z,100.00
2023-03-26T02:22:58.549Z,100.00
2023-03-26T02:25:29.654Z,100.00
2023-03-26T02:27:55.950Z,100.00
2023-03-26T02:30:24.909Z,100.00
2023-03-26T02:32:52.552Z,100.00
2023-03-26T02:35:21.606Z,100.00
2023-03-26T02:37:48.241Z,100.00
2023-03-26T02:40:14.721Z,100.00
2023-03-26T02:42:45.089Z,100.00
2023-03-26T02:45:11.404Z,100.00
2023-03-26T02:47:37.759Z,100.00
2023-03-26T02:50:04.632Z,100.00
2023-03-26T02:52:31.414Z,100.00
2023-03-26T02:54:57.711Z,100.00
2023-03-26T02:57:27.086Z,100.00
2023-03-26T02:59:56.210Z,100.00
2023-03-26T03:02:22.833Z,100.00
2023-03-26T03:04:49.222Z,100.00
2023-03-26T03:07:17.906Z,100.00
2023-03-26T03:09:46.748Z,100.00
2023-03-26T03:12:13.051Z,100.00
2023-03-26T03:14:40.557Z,100.00
2023-03-26T03:17:08.373Z,100.00
2023-03-26T03:19:34.675Z,100.00
2023-03-26T03:22:00.990Z,100.00
2023-03-26T03:24:27.343Z,100.00
2023-03-26T03:26:53.841Z,100.00
2023-03-26T03:29:27.493Z,100.00
2023-03-26T03:31:53.844Z,100.00
2023-03-26T03:34:20.146Z,100.00
2023-03-26T03:36:46.501Z,100.00
2023-03-26T03:39:19.343Z,100.00
2023-03-26T03:41:50.037Z,100.00
2023-03-26T03:44:16.338Z,100.00
2023-03-26T03:46:42.701Z,100.00
2023-03-26T03:49:09.078Z,100.00
2023-03-26T03:51:35.359Z,100.00
2023-03-26T03:54:01.712Z,100.00
2023-03-26T03:56:30.478Z,100.00
2023-03-26T03:58:56.822Z,100.00
2023-03-26T04:01:25.621Z,100.00
2023-03-26T04:03:54.356Z,100.00
2023-03-26T04:06:20.756Z,100.00
2023-03-26T04:08:47.164Z,100.00
2023-03-26T04:11:19.000Z,100.00
2023-03-26T04:13:45.392Z,100.00
2023-03-26T04:16:14.178Z,100.00
2023-03-26T04:18:40.964Z,100.00
2023-03-26T04:21:07.665Z,100.00
2023-03-26T04:23:34.500Z,100.00
2023-03-26T04:26:04.693Z,100.00
2023-03-26T04:28:30.990Z,100.00
2023-03-26T04:30:59.750Z,100.00
2023-03-26T04:33:35.058Z,100.00
2023-03-26T04:36:03.479Z,100.00
2023-03-26T04:38:31.674Z,100.00
2023-03-26T04:40:58.006Z,100.00
2023-03-26T04:43:24.340Z,100.00
2023-03-26T04:45:50.658Z,100.00
2023-03-26T04:48:18.736Z,100.00
2023-03-26T04:50:45.626Z,100.00
2023-03-26T04:53:15.452Z,100.00
2023-03-26T04:55:49.693Z,100.00
2023-03-26T04:58:16.268Z,100.00
2023-03-26T05:00:45.428Z,100.00
2023-03-26T05:03:12.436Z,100.00
2023-03-26T05:05:40.029Z,100.00
2023-03-26T05:08:06.529Z,100.00
2023-03-26T05:10:36.424Z,100.00
2023-03-26T05:13:03.887Z,100.00
2023-03-26T05:15:30.193Z,100.00
2023-03-26T05:17:57.767Z,100.00
2023-03-26T05:20:27.603Z,100.00
2023-03-26T05:22:54.002Z,100.00
2023-03-26T05:25:25.669Z,100.00
2023-03-26T05:27:52.130Z,100.00
2023-03-26T05:30:24.648Z,100.00
2023-03-26T05:32:53.485Z,100.00
2023-03-26T05:35:20.946Z,100.00
2023-03-26T05:37:50.119Z,100.00
2023-03-26T05:40:17.098Z,100.00
2023-03-26T05:42:45.073Z,100.00
2023-03-26T05:45:15.796Z,100.00
2023-03-26T05:47:42.321Z,100.00
2023-03-26T05:50:09.942Z,100.00
2023-03-26T05:52:39.733Z,100.00
2023-03-26T05:55:13.356Z,100.00
2023-03-26T05:57:42.241Z,100.00
2023-03-26T06:00:08.998Z,100.00
2023-03-26T06:02:39.323Z,100.00
2023-03-26T06:05:05.998Z,100.00
2023-03-26T06:07:32.326Z,100.00
2023-03-26T06:10:01.336Z,100.00
2023-03-26T06:12:29.979Z,100.00
2023-03-26T06:14:56.264Z,100.00
2023-03-26T06:17:22.622Z,100.00
2023-03-26T06:19:51.302Z,100.00
2023-03-26T06:22:18.812Z,100.00
2023-03-26T06:24:45.118Z,100.00
2023-03-26T06:27:11.478Z,100.00
2023-03-26T06:29:37.887Z,100.00
2023-03-26T06:32:16.262Z,100.00
2023-03-26T06:34:45.741Z,100.00
2023-03-26T06:37:16.736Z,100.00
2023-03-26T06:39:43.098Z,100.00
2023-03-26T06:42:09.411Z,100.00
2023-03-26T06:44:35.748Z,100.00
2023-03-26T06:47:02.099Z,100.00
2023-03-26T06:49:28.580Z,100.00
2023-03-26T06:51:54.917Z,100.00
2023-03-26T06:54:21.204Z,100.00
2023-03-26T06:56:47.530Z,100.00
2023-03-26T06:59:13.837Z,100.00
2023-03-26T07:01:41.556Z,100.00
2023-03-26T07:04:07.911Z,100.00
2023-03-26T07:06:34.357Z,100.00
2023-03-26T07:09:03.516Z,100.00
2023-03-26T07:11:29.902Z,100.00
2023-03-26T07:13:59.217Z,100.00
2023-03-26T07:16:30.950Z,100.00
2023-03-26T07:19:07.074Z,100.00
2023-03-26T07:21:36.235Z,100.00
2023-03-26T07:24:05.798Z,100.00
2023-03-26T07:27:06.019Z,100.00
2023-03-26T07:29:43.163Z,99.99
2023-03-26T07:32:22.832Z,99.38
2023-03-26T07:35:08.027Z,99.82
2023-03-26T07:37:48.911Z,99.14
2023-03-26T07:40:53.124Z,99.50
2023-03-26T07:43:37.963Z,99.21
2023-03-26T07:46:11.005Z,99.39
2023-03-26T07:48:45.877Z,99.08
2023-03-26T07:51:12.845Z,99.24
2023-03-26T07:53:39.434Z,98.27
2023-03-26T07:56:11.580Z,99.14
2023-03-26T07:59:01.782Z,99.92
2023-03-26T08:01:52.701Z,99.42
2023-03-26T08:04:43.272Z,99.20
2023-03-26T08:07:41.868Z,99.52
2023-03-26T08:10:40.313Z,98.73
2023-03-26T08:13:34.150Z,98.63
2023-03-26T08:16:10.368Z,98.81
2023-03-26T08:19:15.381Z,99.44
2023-03-26T08:21:59.177Z,98.20
2023-03-26T08:25:03.247Z,99.00
2023-03-26T08:27:40.194Z,98.82
2023-03-26T08:30:18.613Z,97.96
2023-03-26T08:33:09.419Z,98.38
2023-03-26T08:35:37.092Z,98.72
2023-03-26T08:38:03.586Z,98.57
2023-03-26T08:40:44.854Z,98.42
2023-03-26T08:43:39.239Z,98.31
2023-03-26T08:46:14.670Z,98.61
2023-03-26T08:49:18.171Z,98.81
2023-03-26T08:52:08.466Z,98.50
2023-03-26T08:54:47.619Z,97.69
2023-03-26T08:57:50.389Z,98.43
2023-03-26T09:00:46.565Z,99.10
2023-03-26T09:03:36.597Z,99.38
2023-03-26T09:07:01.865Z,99.96
2023-03-26T09:09:40.130Z,99.35
2023-03-26T09:12:27.382Z,99.37
2023-03-26T09:15:12.699Z,100.00
2023-03-26T09:17:52.609Z,99.46
2023-03-26T09:20:47.651Z,100.00
2023-03-26T09:23:40.006Z,99.96
2023-03-26T09:26:32.054Z,99.36
2023-03-26T09:29:21.281Z,99.63
2023-03-26T09:31:59.509Z,100.00
2023-03-26T09:34:41.486Z,99.92
2023-03-26T09:37:24.829Z,100.00
2023-03-26T09:40:13.782Z,99.74
2023-03-26T09:42:49.400Z,99.65
2023-03-26T09:45:52.337Z,99.69
2023-03-26T09:48:41.115Z,99.98
2023-03-26T09:51:07.621Z,99.60
2023-03-26T09:54:05.083Z,100.00
2023-03-26T09:56:50.072Z,99.63
2023-03-26T09:59:49.600Z,99.34
2023-03-26T10:03:02.117Z,97.42
2023-03-26T10:05:44.437Z,97.25
2023-03-26T10:08:22.828Z,98.81
2023-03-26T10:10:59.253Z,98.80
2023-03-26T10:13:25.653Z,99.21
2023-03-26T10:16:13.252Z,99.29
2023-03-26T10:19:21.258Z,98.91
2023-03-26T10:22:13.278Z,98.20
2023-03-26T10:24:48.458Z,98.60
2023-03-26T10:27:26.521Z,98.87
2023-03-26T10:30:37.288Z,99.44
2023-03-26T10:33:22.436Z,99.89
2023-03-26T10:36:13.047Z,100.00
2023-03-26T10:39:04.450Z,99.25
2023-03-26T10:41:49.557Z,99.44
2023-03-26T10:44:38.045Z,99.91
2023-03-26T10:47:19.200Z,100.00
2023-03-26T10:50:06.077Z,99.08
2023-03-26T10:52:41.502Z,99.72
2023-03-26T10:55:15.276Z,99.97
2023-03-26T10:57:48.976Z,100.00
2023-03-26T11:00:26.629Z,98.72
2023-03-26T11:03:12.852Z,98.69
2023-03-26T11:06:17.260Z,98.65
2023-03-26T11:09:01.620Z,98.02
2023-03-26T11:11:31.711Z,98.81
2023-03-26T11:14:28.221Z,97.92
2023-03-26T11:17:40.795Z,100.00
2023-03-26T11:20:20.214Z,99.79
2023-03-26T11:23:03.557Z,99.97
2023-03-26T11:25:45.028Z,99.68
2023-03-26T11:28:41.127Z,98.54
2023-03-26T11:31:37.734Z,98.11
2023-03-26T11:34:13.181Z,98.50
2023-03-26T11:36:46.138Z,98.44
2023-03-26T11:39:20.513Z,98.22
2023-03-26T11:41:49.654Z,97.90
2023-03-26T11:45:00.482Z,97.87
2023-03-26T11:47:33.965Z,97.89
2023-03-26T11:50:04.589Z,98.30
2023-03-26T11:52:30.918Z,97.78
2023-03-26T11:55:05.980Z,98.03
2023-03-26T11:57:36.684Z,95.79
2023-03-26T12:00:11.877Z,96.33
2023-03-26T12:02:41.323Z,95.56
2023-03-26T12:05:20.125Z,95.71
2023-03-26T12:07:52.974Z,95.53
2023-03-26T12:10:39.386Z,95.86
2023-03-26T12:13:28.291Z,96.06
2023-03-26T12:16:09.841Z,95.81
2023-03-26T12:18:41.640Z,96.30
2023-03-26T12:21:18.892Z,96.46
2023-03-26T12:23:45.132Z,97.25
2023-03-26T12:26:16.494Z,95.99
2023-03-26T12:28:50.641Z,96.16
2023-03-26T12:31:19.792Z,96.85
2023-03-26T12:34:06.105Z,96.21
2023-03-26T12:36:34.798Z,96.47
2023-03-26T12:40:11.854Z,95.34
2023-03-26T12:44:46.870Z,93.26
2023-03-26T12:45:17.966Z,92.38
2023-03-26T12:47:59.790Z,91.91
2023-03-26T12:50:45.218Z,87.18
2023-03-26T12:53:27.910Z,86.24
2023-03-26T12:56:24.217Z,85.25
2023-03-26T12:59:08.758Z,84.85
2023-03-26T13:02:26.456Z,84.30
2023-03-26T13:05:06.820Z,84.42
2023-03-26T13:07:36.953Z,82.91
2023-03-26T13:10:27.998Z,82.55
2023-03-26T13:13:41.627Z,82.94
2023-03-26T13:16:42.039Z,83.29
2023-03-26T13:19:20.785Z,81.78
2023-03-26T13:21:51.751Z,83.41
2023-03-26T13:24:53.268Z,80.50
2023-03-26T13:27:31.179Z,81.59
2023-03-26T13:30:20.133Z,79.09
2023-03-26T13:32:52.389Z,79.13
2023-03-26T13:35:36.862Z,78.79
2023-03-26T13:38:06.145Z,78.17
2023-03-26T13:40:41.523Z,77.40
2023-03-26T13:43:34.090Z,76.86
2023-03-26T13:46:17.204Z,76.56
2023-03-26T13:48:59.769Z,76.62
2023-03-26T13:51:40.281Z,75.55
2023-03-26T13:54:19.196Z,74.82
2023-03-26T13:56:59.665Z,73.63
2023-03-26T13:59:39.468Z,72.68
2023-03-26T14:02:14.896Z,73.47
2023-03-26T14:04:47.521Z,74.69
2023-03-26T14:07:32.572Z,73.64
2023-03-26T14:10:06.201Z,74.18
2023-03-26T14:13:04.522Z,73.95
2023-03-26T14:15:37.334Z,73.42
2023-03-26T14:18:28.781Z,73.76
2023-03-26T14:21:14.013Z,73.59
2023-03-26T14:24:18.771Z,74.30
2023-03-26T14:27:09.694Z,74.06
2023-03-26T14:29:56.224Z,73.39
2023-03-26T14:32:43.139Z,74.57
2023-03-26T14:35:37.822Z,73.97
2023-03-26T14:38:26.329Z,73.09
2023-03-26T14:41:18.425Z,72.79
2023-03-26T14:44:17.281Z,72.33
2023-03-26T14:46:58.673Z,71.61
2023-03-26T14:50:03.755Z,71.33
2023-03-26T14:52:52.060Z,71.49
2023-03-26T14:55:40.849Z,70.28
2023-03-26T14:58:15.245Z,72.74
2023-03-26T15:01:22.426Z,70.72
2023-03-26T15:04:26.323Z,71.40
2023-03-26T15:07:32.857Z,70.63
2023-03-26T15:10:25.490Z,71.25
2023-03-26T15:13:20.933Z,71.83
2023-03-26T15:16:09.545Z,71.91
2023-03-26T15:18:50.421Z,71.30
2023-03-26T15:21:51.015Z,72.00
2023-03-26T15:24:42.821Z,70.63
2023-03-26T15:27:21.348Z,69.67
2023-03-26T15:30:16.397Z,68.61
2023-03-26T15:33:14.820Z,69.57
2023-03-26T15:36:27.996Z,67.63
2023-03-26T15:39:32.063Z,68.69
2023-03-26T15:42:16.591Z,66.91
2023-03-26T15:44:54.532Z,66.96
2023-03-26T15:47:48.146Z,67.80
2023-03-26T15:50:57.557Z,66.81
2023-03-26T15:53:49.798Z,68.54
2023-03-26T15:56:36.078Z,68.64
2023-03-26T15:59:41.290Z,67.63
2023-03-26T16:02:13.670Z,67.67
2023-03-26T16:04:59.519Z,69.07
2023-03-26T16:08:12.089Z,68.07
2023-03-26T16:10:58.393Z,67.75
2023-03-26T16:13:41.483Z,69.22
2023-03-26T16:16:14.464Z,68.35
2023-03-26T16:18:57.888Z,68.43
2023-03-26T16:21:38.938Z,68.06
2023-03-26T16:24:05.388Z,67.35
2023-03-26T16:26:31.836Z,66.09
2023-03-26T16:29:10.220Z,66.73
2023-03-26T16:31:38.704Z,66.88
2023-03-26T16:34:05.759Z,65.71
2023-03-26T16:36:35.970Z,65.80
2023-03-26T16:39:08.245Z,65.56
2023-03-26T16:41:55.712Z,66.59
2023-03-26T16:45:00.746Z,65.54
2023-03-26T16:47:59.172Z,66.90
2023-03-26T16:50:49.801Z,64.60
2023-03-26T16:53:39.252Z,66.32
2023-03-26T16:56:20.902Z,64.42
2023-03-26T16:58:59.728Z,63.96
2023-03-26T17:01:34.971Z,64.57
2023-03-26T17:04:09.611Z,64.39
2023-03-26T17:06:55.193Z,64.08
2023-03-26T17:09:51.985Z,64.13
2023-03-26T17:12:31.436Z,63.65
2023-03-26T17:15:03.892Z,64.47
2023-03-26T17:18:01.207Z,64.44
2023-03-26T17:20:37.240Z,63.95
2023-03-26T17:23:09.849Z,63.28
2023-03-26T17:25:44.237Z,62.64
2023-03-26T17:28:34.424Z,62.85
2023-03-26T17:31:21.678Z,62.80
2023-03-26T17:33:52.044Z,62.18
2023-03-26T17:36:42.854Z,63.25
2023-03-26T17:39:21.836Z,62.44
2023-03-26T17:42:18.204Z,63.50
2023-03-26T17:45:01.119Z,64.19
2023-03-26T17:47:29.297Z,64.61
2023-03-26T17:50:05.096Z,66.40
2023-03-26T17:52:48.025Z,63.46
2023-03-26T17:55:25.770Z,64.63
2023-03-26T17:57:57.856Z,65.68
2023-03-26T18:00:31.498Z,64.17
2023-03-26T18:03:06.022Z,64.24
2023-03-26T18:05:35.766Z,63.72
2023-03-26T18:08:29.991Z,62.73
2023-03-26T18:11:18.141Z,64.39
2023-03-26T18:14:07.621Z,63.49
2023-03-26T18:17:12.572Z,64.60
2023-03-26T18:20:07.868Z,63.33
2023-03-26T18:22:34.801Z,63.78
2023-03-26T18:25:02.505Z,64.43
2023-03-26T18:27:36.221Z,64.93
2023-03-26T18:30:17.179Z,64.62
2023-03-26T18:33:12.097Z,64.43
2023-03-26T18:35:53.390Z,64.96
2023-03-26T18:38:36.780Z,64.58
2023-03-26T18:41:05.884Z,65.31
2023-03-26T18:43:44.606Z,64.14
2023-03-26T18:46:14.172Z,65.83
2023-03-26T18:48:42.491Z,64.30
2023-03-26T18:51:12.686Z,64.71
2023-03-26T18:53:50.366Z,65.76
2023-03-26T18:56:42.575Z,66.25
2023-03-26T18:59:35.826Z,65.71
2023-03-26T19:02:14.050Z,66.14
2023-03-26T19:04:52.698Z,65.86
2023-03-26T19:07:23.650Z,66.80
2023-03-26T19:09:51.694Z,67.17
2023-03-26T19:12:22.910Z,68.96
2023-03-26T19:15:09.800Z,68.40
2023-03-26T19:17:44.216Z,68.68
2023-03-26T19:20:20.786Z,69.24
2023-03-26T19:22:48.198Z,69.26
2023-03-26T19:25:41.162Z,71.80
2023-03-26T19:28:16.360Z,70.47
2023-03-26T19:30:42.858Z,70.97
2023-03-26T19:33:22.995Z,71.38
2023-03-26T19:36:01.737Z,71.15
2023-03-26T19:38:29.830Z,71.41
2023-03-26T19:41:00.284Z,72.45
2023-03-26T19:43:27.223Z,71.99
2023-03-26T19:46:00.470Z,72.25
2023-03-26T19:48:45.796Z,73.19
2023-03-26T19:51:22.158Z,73.26
2023-03-26T19:53:52.963Z,71.96
2023-03-26T19:56:20.677Z,73.32
2023-03-26T19:58:47.828Z,72.41
2023-03-26T20:01:25.875Z,72.88
2023-03-26T20:03:56.174Z,72.25
2023-03-26T20:06:33.992Z,71.99
2023-03-26T20:09:05.850Z,72.33
2023-03-26T20:11:35.098Z,71.91
2023-03-26T20:14:16.390Z,72.40
2023-03-26T20:16:45.197Z,72.55
2023-03-26T20:19:12.573Z,73.55
2023-03-26T20:21:38.879Z,73.53
2023-03-26T20:24:12.433Z,73.60
2023-03-26T20:26:38.802Z,73.30
2023-03-26T20:29:06.324Z,72.67
2023-03-26T20:31:32.733Z,73.11
2023-03-26T20:34:01.473Z,72.34
2023-03-26T20:36:33.136Z,72.19
2023-03-26T20:39:02.658Z,73.11
2023-03-26T20:41:29.065Z,71.78
2023-03-26T20:43:56.856Z,71.77
2023-03-26T20:46:31.303Z,72.76
2023-03-26T20:49:00.579Z,72.02
2023-03-26T20:51:27.085Z,72.26
2023-03-26T20:53:53.477Z,72.60
2023-03-26T20:56:20.397Z,72.73
2023-03-26T20:58:50.579Z,74.40
2023-03-26T21:01:21.410Z,74.06
2023-03-26T21:03:47.741Z,75.59
2023-03-26T21:06:17.169Z,75.75
2023-03-26T21:08:45.026Z,74.93
2023-03-26T21:11:26.471Z,75.49
2023-03-26T21:14:05.832Z,76.02
2023-03-26T21:16:32.791Z,76.74
2023-03-26T21:18:59.452Z,76.57
2023-03-26T21:21:45.461Z,75.81
2023-03-26T21:24:23.257Z,76.75
2023-03-26T21:26:57.056Z,76.04
2023-03-26T21:29:23.682Z,76.45
2023-03-26T21:31:51.607Z,77.17
2023-03-26T21:34:20.130Z,77.17
2023-03-26T21:36:46.653Z,76.48
2023-03-26T21:39:13.250Z,76.73
2023-03-26T21:42:05.479Z,77.19
2023-03-26T21:44:35.211Z,77.92
2023-03-26T21:47:01.792Z,77.83
2023-03-26T21:49:28.547Z,78.45
2023-03-26T21:51:57.566Z,78.58
2023-03-26T21:54:27.430Z,78.97
2023-03-26T21:57:10.288Z,79.35
2023-03-26T21:59:47.166Z,78.60
2023-03-26T22:03:01.511Z,79.01
2023-03-26T22:06:06.375Z,79.61
2023-03-26T22:08:40.814Z,80.41
2023-03-26T22:11:10.812Z,80.74
2023-03-26T22:13:38.878Z,79.85
2023-03-26T22:16:11.934Z,79.33
2023-03-26T22:18:40.448Z,79.86
2023-03-26T22:21:09.218Z,79.23
2023-03-26T22:23:35.599Z,80.09
2023-03-26T22:26:03.164Z,80.82
2023-03-26T22:28:30.395Z,81.50
2023-03-26T22:30:56.966Z,81.21
2023-03-26T22:33:25.631Z,80.70
2023-03-26T22:35:53.185Z,79.76
2023-03-26T22:38:21.898Z,80.48
2023-03-26T22:40:55.382Z,80.50
2023-03-26T22:43:21.792Z,80.69
2023-03-26T22:45:51.841Z,81.24
2023-03-26T22:48:23.163Z,81.54
2023-03-26T22:51:01.223Z,82.95
2023-03-26T22:53:27.942Z,82.67
2023-03-26T22:55:56.465Z,82.49
2023-03-26T22:58:22.883Z,83.33
2023-03-26T23:00:51.522Z,84.65
2023-03-26T23:03:20.839Z,85.05
2023-03-26T23:06:06.666Z,85.99
2023-03-26T23:08:34.276Z,86.14
2023-03-26T23:11:01.714Z,86.29
2023-03-26T23:13:35.019Z,86.10
2023-03-26T23:16:01.474Z,86.66
2023-03-26T23:18:28.908Z,87.34
2023-03-26T23:20:58.256Z,86.51
2023-03-26T23:23:34.692Z,87.91
2023-03-26T23:26:03.541Z,88.44
2023-03-26T23:28:31.471Z,88.33
2023-03-26T23:31:01.448Z,88.35
2023-03-26T23:33:32.747Z,88.26
2023-03-26T23:36:00.338Z,88.73
2023-03-26T23:38:43.452Z,89.34
2023-03-26T23:41:11.024Z,88.60
2023-03-26T23:43:37.307Z,88.71
2023-03-26T23:46:03.694Z,88.90
2023-03-26T23:48:30.053Z,89.76
2023-03-26T23:51:03.193Z,89.57
2023-03-26T23:53:31.616Z,88.48
2023-03-26T23:55:58.620Z,88.85
2023-03-26T23:58:28.110Z,89.15
